sensor_id;sensor_type;location;lat;lon;timestamp;P1;durP1;ratioP1;P2;durP2;ratioP2
26822;SDS011;14852;51.910;8.878;2023-08-06T00:00:27;4.13;;;3.53;;
26822;SDS011;14852;51.910;8.878;2023-08-06T00:02:53;3.00;;;2.75;;
26822;SDS011;14852;51.910;8.878;2023-08-06T00:05:22;4.13;;;3.30;;
26822;SDS011;14852;51.910;8.878;2023-08-06T00:07:51;3.33;;;2.95;;
26822;SDS011;14852;51.910;8.878;2023-08-06T00:10:17;3.67;;;3.30;;
26822;SDS011;14852;51.910;8.878;2023-08-06T00:12:46;4.18;;;3.78;;
26822;SDS011;14852;51.910;8.878;2023-08-06T00:15:11;4.82;;;4.30;;
26822;SDS011;14852;51.910;8.878;2023-08-06T00:17:37;8.65;;;4.93;;
26822;SDS011;14852;51.910;8.878;2023-08-06T00:20:03;3.85;;;3.55;;
26822;SDS011;14852;51.910;8.878;2023-08-06T00:22:37;6.00;;;4.50;;
26822;SDS011;14852;51.910;8.878;2023-08-06T00:25:04;6.47;;;5.80;;
26822;SDS011;14852;51.910;8.878;2023-08-06T00:27:30;8.18;;;6.55;;
26822;SDS011;14852;51.910;8.878;2023-08-06T00:29:57;7.70;;;5.68;;
26822;SDS011;14852;51.910;8.878;2023-08-06T00:32:24;6.65;;;6.03;;
26822;SDS011;14852;51.910;8.878;2023-08-06T00:34:49;6.72;;;6.00;;
26822;SDS011;14852;51.910;8.878;2023-08-06T00:37:16;10.15;;;7.40;;
26822;SDS011;14852;51.910;8.878;2023-08-06T00:39:42;7.07;;;6.38;;
26822;SDS011;14852;51.910;8.878;2023-08-06T00:42:09;8.05;;;6.43;;
26822;SDS011;14852;51.910;8.878;2023-08-06T00:44:36;6.95;;;6.25;;
26822;SDS011;14852;51.910;8.878;2023-08-06T00:47:03;5.90;;;5.15;;
26822;SDS011;14852;51.910;8.878;2023-08-06T00:49:29;5.70;;;5.13;;
26822;SDS011;14852;51.910;8.878;2023-08-06T00:51:56;7.88;;;5.25;;
26822;SDS011;14852;51.910;8.878;2023-08-06T00:54:23;5.93;;;5.32;;
26822;SDS011;14852;51.910;8.878;2023-08-06T00:56:49;7.07;;;6.38;;
26822;SDS011;14852;51.910;8.878;2023-08-06T00:59:15;6.78;;;6.18;;
26822;SDS011;14852;51.910;8.878;2023-08-06T01:01:41;7.03;;;6.35;;
26822;SDS011;14852;51.910;8.878;2023-08-06T01:04:08;5.75;;;5.25;;
26822;SDS011;14852;51.910;8.878;2023-08-06T01:09:21;5.50;;;5.00;;
26822;SDS011;14852;51.910;8.878;2023-08-06T01:15:24;6.60;;;5.95;;
26822;SDS011;14852;51.910;8.878;2023-08-06T01:17:55;6.20;;;5.60;;
26822;SDS011;14852;51.910;8.878;2023-08-06T01:20:21;7.20;;;5.85;;
26822;SDS011;14852;51.910;8.878;2023-08-06T01:22:46;7.43;;;6.30;;
26822;SDS011;14852;51.910;8.878;2023-08-06T01:25:13;6.07;;;5.47;;
26822;SDS011;14852;51.910;8.878;2023-08-06T01:27:44;6.32;;;5.38;;
26822;SDS011;14852;51.910;8.878;2023-08-06T01:30:29;6.82;;;4.95;;
26822;SDS011;14852;51.910;8.878;2023-08-06T01:33:00;5.88;;;5.28;;
26822;SDS011;14852;51.910;8.878;2023-08-06T01:35:30;6.20;;;5.60;;
26822;SDS011;14852;51.910;8.878;2023-08-06T01:37:59;5.13;;;4.72;;
26822;SDS011;14852;51.910;8.878;2023-08-06T01:40:26;5.60;;;5.05;;
26822;SDS011;14852;51.910;8.878;2023-08-06T01:42:53;5.97;;;5.43;;
26822;SDS011;14852;51.910;8.878;2023-08-06T01:45:19;9.43;;;5.90;;
26822;SDS011;14852;51.910;8.878;2023-08-06T01:47:45;6.80;;;5.57;;
26822;SDS011;14852;51.910;8.878;2023-08-06T01:50:10;6.25;;;5.18;;
26822;SDS011;14852;51.910;8.878;2023-08-06T01:52:36;7.25;;;5.28;;
26822;SDS011;14852;51.910;8.878;2023-08-06T01:55:02;5.85;;;5.25;;
26822;SDS011;14852;51.910;8.878;2023-08-06T01:57:28;6.72;;;5.13;;
26822;SDS011;14852;51.910;8.878;2023-08-06T01:59:54;4.97;;;4.47;;
26822;SDS011;14852;51.910;8.878;2023-08-06T02:02:20;5.65;;;5.00;;
26822;SDS011;14852;51.910;8.878;2023-08-06T02:04:46;6.80;;;5.35;;
26822;SDS011;14852;51.910;8.878;2023-08-06T02:07:12;8.07;;;5.13;;
26822;SDS011;14852;51.910;8.878;2023-08-06T02:09:38;6.43;;;5.80;;
26822;SDS011;14852;51.910;8.878;2023-08-06T02:12:03;6.00;;;5.28;;
26822;SDS011;14852;51.910;8.878;2023-08-06T02:14:30;10.35;;;6.05;;
26822;SDS011;14852;51.910;8.878;2023-08-06T02:16:56;4.63;;;4.22;;
26822;SDS011;14852;51.910;8.878;2023-08-06T02:19:24;4.47;;;4.07;;
26822;SDS011;14852;51.910;8.878;2023-08-06T02:21:50;4.95;;;4.45;;
26822;SDS011;14852;51.910;8.878;2023-08-06T02:24:15;5.03;;;4.53;;
26822;SDS011;14852;51.910;8.878;2023-08-06T02:26:41;4.50;;;4.10;;
26822;SDS011;14852;51.910;8.878;2023-08-06T02:29:07;5.05;;;4.50;;
26822;SDS011;14852;51.910;8.878;2023-08-06T02:31:34;12.35;;;5.07;;
26822;SDS011;14852;51.910;8.878;2023-08-06T02:33:59;9.02;;;4.40;;
26822;SDS011;14852;51.910;8.878;2023-08-06T02:36:25;4.95;;;4.45;;
26822;SDS011;14852;51.910;8.878;2023-08-06T02:38:54;5.50;;;4.55;;
26822;SDS011;14852;51.910;8.878;2023-08-06T02:41:21;4.75;;;4.32;;
26822;SDS011;14852;51.910;8.878;2023-08-06T02:43:47;5.45;;;4.55;;
26822;SDS011;14852;51.910;8.878;2023-08-06T02:46:13;5.25;;;4.75;;
26822;SDS011;14852;51.910;8.878;2023-08-06T02:48:38;5.75;;;3.95;;
26822;SDS011;14852;51.910;8.878;2023-08-06T02:51:04;4.65;;;4.25;;
26822;SDS011;14852;51.910;8.878;2023-08-06T02:53:31;5.00;;;4.50;;
26822;SDS011;14852;51.910;8.878;2023-08-06T02:56:00;4.75;;;4.25;;
26822;SDS011;14852;51.910;8.878;2023-08-06T02:58:34;6.80;;;4.68;;
26822;SDS011;14852;51.910;8.878;2023-08-06T03:01:12;4.55;;;4.15;;
26822;SDS011;14852;51.910;8.878;2023-08-06T03:03:45;4.68;;;3.80;;
26822;SDS011;14852;51.910;8.878;2023-08-06T03:06:18;8.15;;;3.85;;
26822;SDS011;14852;51.910;8.878;2023-08-06T03:08:47;5.63;;;3.40;;
26822;SDS011;14852;51.910;8.878;2023-08-06T03:11:13;6.40;;;4.60;;
26822;SDS011;14852;51.910;8.878;2023-08-06T03:13:40;6.07;;;3.75;;
26822;SDS011;14852;51.910;8.878;2023-08-06T03:16:06;3.53;;;3.22;;
26822;SDS011;14852;51.910;8.878;2023-08-06T03:18:32;4.90;;;3.60;;
26822;SDS011;14852;51.910;8.878;2023-08-06T03:21:02;3.92;;;3.53;;
26822;SDS011;14852;51.910;8.878;2023-08-06T03:23:29;4.07;;;3.63;;
26822;SDS011;14852;51.910;8.878;2023-08-06T03:25:55;7.97;;;3.53;;
26822;SDS011;14852;51.910;8.878;2023-08-06T03:28:21;4.15;;;3.50;;
26822;SDS011;14852;51.910;8.878;2023-08-06T03:30:48;4.43;;;4.03;;
26822;SDS011;14852;51.910;8.878;2023-08-06T03:33:24;6.40;;;4.13;;
26822;SDS011;14852;51.910;8.878;2023-08-06T03:35:50;5.55;;;4.18;;
26822;SDS011;14852;51.910;8.878;2023-08-06T03:38:17;4.78;;;3.90;;
26822;SDS011;14852;51.910;8.878;2023-08-06T03:40:43;4.15;;;3.75;;
26822;SDS011;14852;51.910;8.878;2023-08-06T03:43:09;4.03;;;3.63;;
26822;SDS011;14852;51.910;8.878;2023-08-06T03:45:35;4.57;;;3.78;;
26822;SDS011;14852;51.910;8.878;2023-08-06T03:48:01;7.05;;;3.60;;
26822;SDS011;14852;51.910;8.878;2023-08-06T03:50:27;4.43;;;3.92;;
26822;SDS011;14852;51.910;8.878;2023-08-06T03:52:53;4.00;;;3.58;;
26822;SDS011;14852;51.910;8.878;2023-08-06T03:55:20;4.13;;;3.63;;
26822;SDS011;14852;51.910;8.878;2023-08-06T03:57:46;3.90;;;3.45;;
26822;SDS011;14852;51.910;8.878;2023-08-06T04:00:12;5.05;;;3.50;;
26822;SDS011;14852;51.910;8.878;2023-08-06T04:02:41;5.80;;;3.60;;
26822;SDS011;14852;51.910;8.878;2023-08-06T04:05:09;3.58;;;3.25;;
26822;SDS011;14852;51.910;8.878;2023-08-06T04:07:35;3.17;;;2.67;;
26822;SDS011;14852;51.910;8.878;2023-08-06T04:10:02;6.40;;;4.55;;
26822;SDS011;14852;51.910;8.878;2023-08-06T04:12:29;5.82;;;4.22;;
26822;SDS011;14852;51.910;8.878;2023-08-06T04:14:57;4.40;;;3.80;;
26822;SDS011;14852;51.910;8.878;2023-08-06T04:17:23;4.28;;;3.47;;
26822;SDS011;14852;51.910;8.878;2023-08-06T04:19:53;3.40;;;3.10;;
26822;SDS011;14852;51.910;8.878;2023-08-06T04:22:20;3.45;;;2.90;;
26822;SDS011;14852;51.910;8.878;2023-08-06T04:24:47;4.78;;;3.30;;
26822;SDS011;14852;51.910;8.878;2023-08-06T04:27:13;3.85;;;3.28;;
26822;SDS011;14852;51.910;8.878;2023-08-06T04:29:41;5.38;;;3.00;;
26822;SDS011;14852;51.910;8.878;2023-08-06T04:32:09;3.50;;;3.03;;
26822;SDS011;14852;51.910;8.878;2023-08-06T04:34:38;3.15;;;2.85;;
26822;SDS011;14852;51.910;8.878;2023-08-06T04:37:04;3.58;;;3.10;;
26822;SDS011;14852;51.910;8.878;2023-08-06T04:39:30;3.97;;;3.65;;
26822;SDS011;14852;51.910;8.878;2023-08-06T04:41:56;5.75;;;2.65;;
26822;SDS011;14852;51.910;8.878;2023-08-06T04:44:26;3.00;;;2.65;;
26822;SDS011;14852;51.910;8.878;2023-08-06T04:46:51;3.10;;;2.70;;
26822;SDS011;14852;51.910;8.878;2023-08-06T04:49:18;3.15;;;2.38;;
26822;SDS011;14852;51.910;8.878;2023-08-06T04:51:45;7.70;;;4.07;;
26822;SDS011;14852;51.910;8.878;2023-08-06T04:54:11;3.70;;;3.35;;
26822;SDS011;14852;51.910;8.878;2023-08-06T04:56:37;4.00;;;3.47;;
26822;SDS011;14852;51.910;8.878;2023-08-06T04:59:02;4.70;;;4.20;;
26822;SDS011;14852;51.910;8.878;2023-08-06T05:01:28;4.75;;;4.30;;
26822;SDS011;14852;51.910;8.878;2023-08-06T05:03:54;3.92;;;3.55;;
26822;SDS011;14852;51.910;8.878;2023-08-06T05:06:20;5.25;;;3.35;;
26822;SDS011;14852;51.910;8.878;2023-08-06T05:08:46;4.07;;;3.25;;
26822;SDS011;14852;51.910;8.878;2023-08-06T05:11:12;5.20;;;4.72;;
26822;SDS011;14852;51.910;8.878;2023-08-06T05:13:37;6.45;;;4.80;;
26822;SDS011;14852;51.910;8.878;2023-08-06T05:16:03;6.28;;;5.68;;
26822;SDS011;14852;51.910;8.878;2023-08-06T05:18:29;5.32;;;4.63;;
26822;SDS011;14852;51.910;8.878;2023-08-06T05:20:55;6.85;;;6.00;;
26822;SDS011;14852;51.910;8.878;2023-08-06T05:23:22;7.95;;;6.65;;
26822;SDS011;14852;51.910;8.878;2023-08-06T05:25:47;8.25;;;5.80;;
26822;SDS011;14852;51.910;8.878;2023-08-06T05:28:13;7.88;;;6.45;;
26822;SDS011;14852;51.910;8.878;2023-08-06T05:30:39;7.00;;;6.30;;
26822;SDS011;14852;51.910;8.878;2023-08-06T05:33:05;6.65;;;6.03;;
26822;SDS011;14852;51.910;8.878;2023-08-06T05:35:31;7.88;;;6.05;;
26822;SDS011;14852;51.910;8.878;2023-08-06T05:37:57;8.45;;;7.55;;
26822;SDS011;14852;51.910;8.878;2023-08-06T05:40:23;7.30;;;6.35;;
26822;SDS011;14852;51.910;8.878;2023-08-06T05:42:50;7.50;;;5.82;;
26822;SDS011;14852;51.910;8.878;2023-08-06T05:45:19;7.25;;;5.93;;
26822;SDS011;14852;51.910;8.878;2023-08-06T05:47:44;6.55;;;5.80;;
26822;SDS011;14852;51.910;8.878;2023-08-06T05:50:10;4.82;;;4.40;;
26822;SDS011;14852;51.910;8.878;2023-08-06T05:52:36;4.38;;;3.92;;
26822;SDS011;14852;51.910;8.878;2023-08-06T05:55:02;3.60;;;3.30;;
26822;SDS011;14852;51.910;8.878;2023-08-06T05:57:28;3.95;;;3.45;;
26822;SDS011;14852;51.910;8.878;2023-08-06T05:59:54;4.32;;;3.38;;
26822;SDS011;14852;51.910;8.878;2023-08-06T06:02:19;3.53;;;2.90;;
26822;SDS011;14852;51.910;8.878;2023-08-06T06:04:45;4.43;;;3.15;;
26822;SDS011;14852;51.910;8.878;2023-08-06T06:07:11;4.63;;;3.30;;
26822;SDS011;14852;51.910;8.878;2023-08-06T06:09:37;3.58;;;3.10;;
26822;SDS011;14852;51.910;8.878;2023-08-06T06:12:04;3.28;;;2.90;;
26822;SDS011;14852;51.910;8.878;2023-08-06T06:14:31;3.75;;;2.72;;
26822;SDS011;14852;51.910;8.878;2023-08-06T06:16:57;3.10;;;2.80;;
26822;SDS011;14852;51.910;8.878;2023-08-06T06:19:25;4.00;;;2.90;;
26822;SDS011;14852;51.910;8.878;2023-08-06T06:21:50;3.28;;;2.97;;
26822;SDS011;14852;51.910;8.878;2023-08-06T06:24:17;3.45;;;3.10;;
26822;SDS011;14852;51.910;8.878;2023-08-06T06:26:42;3.70;;;3.40;;
26822;SDS011;14852;51.910;8.878;2023-08-06T06:29:08;3.53;;;2.90;;
26822;SDS011;14852;51.910;8.878;2023-08-06T06:31:34;3.17;;;2.88;;
26822;SDS011;14852;51.910;8.878;2023-08-06T06:34:00;5.93;;;3.42;;
26822;SDS011;14852;51.910;8.878;2023-08-06T06:36:26;4.15;;;3.63;;
26822;SDS011;14852;51.910;8.878;2023-08-06T06:38:51;5.05;;;3.63;;
26822;SDS011;14852;51.910;8.878;2023-08-06T06:41:17;4.50;;;3.42;;
26822;SDS011;14852;51.910;8.878;2023-08-06T06:43:43;4.28;;;3.30;;
26822;SDS011;14852;51.910;8.878;2023-08-06T06:46:09;4.35;;;3.95;;
26822;SDS011;14852;51.910;8.878;2023-08-06T06:48:35;4.50;;;4.10;;
26822;SDS011;14852;51.910;8.878;2023-08-06T06:51:00;4.53;;;4.13;;
26822;SDS011;14852;51.910;8.878;2023-08-06T06:53:26;6.97;;;3.60;;
26822;SDS011;14852;51.910;8.878;2023-08-06T06:56:02;4.13;;;3.72;;
26822;SDS011;14852;51.910;8.878;2023-08-06T06:58:29;4.43;;;3.85;;
26822;SDS011;14852;51.910;8.878;2023-08-06T07:00:58;6.57;;;4.72;;
26822;SDS011;14852;51.910;8.878;2023-08-06T07:03:24;4.03;;;3.38;;
26822;SDS011;14852;51.910;8.878;2023-08-06T07:05:50;4.50;;;4.07;;
26822;SDS011;14852;51.910;8.878;2023-08-06T07:08:16;3.83;;;2.97;;
26822;SDS011;14852;51.910;8.878;2023-08-06T07:10:42;5.38;;;3.80;;
26822;SDS011;14852;51.910;8.878;2023-08-06T07:13:08;6.05;;;3.90;;
26822;SDS011;14852;51.910;8.878;2023-08-06T07:15:34;4.55;;;3.40;;
26822;SDS011;14852;51.910;8.878;2023-08-06T07:18:00;4.75;;;3.83;;
26822;SDS011;14852;51.910;8.878;2023-08-06T07:20:26;5.63;;;3.60;;
26822;SDS011;14852;51.910;8.878;2023-08-06T07:22:56;4.97;;;4.00;;
26822;SDS011;14852;51.910;8.878;2023-08-06T07:25:23;5.60;;;3.70;;
26822;SDS011;14852;51.910;8.878;2023-08-06T07:27:49;4.47;;;3.78;;
26822;SDS011;14852;51.910;8.878;2023-08-06T07:30:15;4.45;;;3.08;;
26822;SDS011;14852;51.910;8.878;2023-08-06T07:32:40;3.90;;;3.50;;
26822;SDS011;14852;51.910;8.878;2023-08-06T07:35:06;3.08;;;2.72;;
26822;SDS011;14852;51.910;8.878;2023-08-06T07:37:34;4.85;;;3.65;;
26822;SDS011;14852;51.910;8.878;2023-08-06T07:40:00;3.20;;;2.90;;
26822;SDS011;14852;51.910;8.878;2023-08-06T07:42:26;3.63;;;3.15;;
26822;SDS011;14852;51.910;8.878;2023-08-06T07:44:55;5.75;;;3.10;;
26822;SDS011;14852;51.910;8.878;2023-08-06T07:47:22;2.97;;;2.67;;
26822;SDS011;14852;51.910;8.878;2023-08-06T07:49:48;4.13;;;2.60;;
26822;SDS011;14852;51.910;8.878;2023-08-06T07:52:14;3.60;;;2.90;;
26822;SDS011;14852;51.910;8.878;2023-08-06T07:54:40;3.58;;;2.80;;
26822;SDS011;14852;51.910;8.878;2023-08-06T07:57:06;2.58;;;2.38;;
26822;SDS011;14852;51.910;8.878;2023-08-06T07:59:32;2.67;;;2.15;;
26822;SDS011;14852;51.910;8.878;2023-08-06T08:01:58;3.03;;;2.70;;
26822;SDS011;14852;51.910;8.878;2023-08-06T08:04:24;2.22;;;2.03;;
26822;SDS011;14852;51.910;8.878;2023-08-06T08:06:50;2.50;;;2.05;;
26822;SDS011;14852;51.910;8.878;2023-08-06T08:09:15;2.90;;;2.60;;
26822;SDS011;14852;51.910;8.878;2023-08-06T08:11:41;3.22;;;2.50;;
26822;SDS011;14852;51.910;8.878;2023-08-06T08:14:07;3.38;;;2.30;;
26822;SDS011;14852;51.910;8.878;2023-08-06T08:16:33;2.85;;;2.20;;
26822;SDS011;14852;51.910;8.878;2023-08-06T08:18:59;2.83;;;2.38;;
26822;SDS011;14852;51.910;8.878;2023-08-06T08:21:25;4.60;;;2.38;;
26822;SDS011;14852;51.910;8.878;2023-08-06T08:23:51;2.85;;;2.25;;
26822;SDS011;14852;51.910;8.878;2023-08-06T08:26:17;2.67;;;2.20;;
26822;SDS011;14852;51.910;8.878;2023-08-06T08:28:43;2.38;;;2.17;;
26822;SDS011;14852;51.910;8.878;2023-08-06T08:31:09;2.20;;;1.83;;
26822;SDS011;14852;51.910;8.878;2023-08-06T08:33:37;2.85;;;2.30;;
26822;SDS011;14852;51.910;8.878;2023-08-06T08:36:03;3.40;;;2.40;;
26822;SDS011;14852;51.910;8.878;2023-08-06T08:38:29;2.38;;;2.13;;
26822;SDS011;14852;51.910;8.878;2023-08-06T08:40:55;2.58;;;2.10;;
26822;SDS011;14852;51.910;8.878;2023-08-06T08:43:21;2.45;;;2.13;;
26822;SDS011;14852;51.910;8.878;2023-08-06T08:45:51;2.97;;;2.45;;
26822;SDS011;14852;51.910;8.878;2023-08-06T08:48:20;7.10;;;2.22;;
26822;SDS011;14852;51.910;8.878;2023-08-06T08:50:48;2.70;;;2.17;;
26822;SDS011;14852;51.910;8.878;2023-08-06T08:53:15;2.58;;;2.13;;
26822;SDS011;14852;51.910;8.878;2023-08-06T08:55:42;1.83;;;1.70;;
26822;SDS011;14852;51.910;8.878;2023-08-06T08:58:14;2.70;;;2.00;;
26822;SDS011;14852;51.910;8.878;2023-08-06T09:00:41;2.38;;;1.90;;
26822;SDS011;14852;51.910;8.878;2023-08-06T09:03:07;2.30;;;2.10;;
26822;SDS011;14852;51.910;8.878;2023-08-06T09:05:34;4.40;;;2.30;;
26822;SDS011;14852;51.910;8.878;2023-08-06T09:08:03;1.80;;;1.65;;
26822;SDS011;14852;51.910;8.878;2023-08-06T09:10:30;1.83;;;1.65;;
26822;SDS011;14852;51.910;8.878;2023-08-06T09:12:57;2.55;;;1.95;;
26822;SDS011;14852;51.910;8.878;2023-08-06T09:15:26;2.20;;;2.00;;
26822;SDS011;14852;51.910;8.878;2023-08-06T09:17:53;1.90;;;1.70;;
26822;SDS011;14852;51.910;8.878;2023-08-06T09:20:20;3.72;;;1.92;;
26822;SDS011;14852;51.910;8.878;2023-08-06T09:22:46;2.60;;;1.98;;
26822;SDS011;14852;51.910;8.878;2023-08-06T09:25:20;2.42;;;1.88;;
26822;SDS011;14852;51.910;8.878;2023-08-06T09:27:49;3.03;;;2.17;;
26822;SDS011;14852;51.910;8.878;2023-08-06T09:30:29;2.35;;;2.00;;
26822;SDS011;14852;51.910;8.878;2023-08-06T09:32:57;2.35;;;2.00;;
26822;SDS011;14852;51.910;8.878;2023-08-06T09:35:23;2.15;;;1.88;;
26822;SDS011;14852;51.910;8.878;2023-08-06T09:37:49;3.25;;;2.00;;
26822;SDS011;14852;51.910;8.878;2023-08-06T09:40:28;2.30;;;1.90;;
26822;SDS011;14852;51.910;8.878;2023-08-06T09:42:59;2.25;;;2.00;;
26822;SDS011;14852;51.910;8.878;2023-08-06T09:45:35;2.13;;;1.85;;
26822;SDS011;14852;51.910;8.878;2023-08-06T09:48:06;4.10;;;1.92;;
26822;SDS011;14852;51.910;8.878;2023-08-06T09:50:35;2.17;;;1.98;;
26822;SDS011;14852;51.910;8.878;2023-08-06T09:53:04;2.60;;;1.75;;
26822;SDS011;14852;51.910;8.878;2023-08-06T09:55:31;2.15;;;1.63;;
26822;SDS011;14852;51.910;8.878;2023-08-06T09:57:58;2.30;;;1.70;;
26822;SDS011;14852;51.910;8.878;2023-08-06T10:00:25;2.53;;;2.20;;
26822;SDS011;14852;51.910;8.878;2023-08-06T10:02:53;2.00;;;1.60;;
26822;SDS011;14852;51.910;8.878;2023-08-06T10:05:24;3.58;;;2.05;;
26822;SDS011;14852;51.910;8.878;2023-08-06T10:07:50;1.83;;;1.63;;
26822;SDS011;14852;51.910;8.878;2023-08-06T10:10:16;1.98;;;1.60;;
26822;SDS011;14852;51.910;8.878;2023-08-06T10:12:52;3.63;;;1.85;;
26822;SDS011;14852;51.910;8.878;2023-08-06T10:15:23;2.15;;;1.88;;
26822;SDS011;14852;51.910;8.878;2023-08-06T10:17:54;2.22;;;2.00;;
26822;SDS011;14852;51.910;8.878;2023-08-06T10:20:23;2.78;;;1.63;;
26822;SDS011;14852;51.910;8.878;2023-08-06T10:23:22;2.90;;;1.90;;
26822;SDS011;14852;51.910;8.878;2023-08-06T10:25:42;3.40;;;1.80;;
26822;SDS011;14852;51.910;8.878;2023-08-06T10:28:18;1.98;;;1.50;;
26822;SDS011;14852;51.910;8.878;2023-08-06T10:30:45;1.70;;;1.52;;
26822;SDS011;14852;51.910;8.878;2023-08-06T10:33:11;1.67;;;1.45;;
26822;SDS011;14852;51.910;8.878;2023-08-06T10:35:41;1.67;;;1.50;;
26822;SDS011;14852;51.910;8.878;2023-08-06T10:38:16;2.47;;;1.65;;
26822;SDS011;14852;51.910;8.878;2023-08-06T10:41:05;1.70;;;1.60;;
26822;SDS011;14852;51.910;8.878;2023-08-06T10:43:34;2.70;;;1.58;;
26822;SDS011;14852;51.910;8.878;2023-08-06T10:46:04;3.65;;;1.67;;
26822;SDS011;14852;51.910;8.878;2023-08-06T10:48:43;3.53;;;1.77;;
26822;SDS011;14852;51.910;8.878;2023-08-06T10:51:11;6.82;;;1.80;;
26822;SDS011;14852;51.910;8.878;2023-08-06T10:53:46;2.10;;;1.90;;
26822;SDS011;14852;51.910;8.878;2023-08-06T10:56:15;1.92;;;1.80;;
26822;SDS011;14852;51.910;8.878;2023-08-06T10:58:42;2.00;;;1.73;;
26822;SDS011;14852;51.910;8.878;2023-08-06T11:01:12;2.28;;;1.90;;
26822;SDS011;14852;51.910;8.878;2023-08-06T11:03:39;2.28;;;1.40;;
26822;SDS011;14852;51.910;8.878;2023-08-06T11:06:08;1.85;;;1.60;;
26822;SDS011;14852;51.910;8.878;2023-08-06T11:08:40;2.03;;;1.83;;
26822;SDS011;14852;51.910;8.878;2023-08-06T11:11:13;2.22;;;2.03;;
26822;SDS011;14852;51.910;8.878;2023-08-06T11:13:44;1.85;;;1.75;;
26822;SDS011;14852;51.910;8.878;2023-08-06T11:16:15;2.28;;;1.70;;
26822;SDS011;14852;51.910;8.878;2023-08-06T11:18:44;2.65;;;1.40;;
26822;SDS011;14852;51.910;8.878;2023-08-06T11:21:10;1.45;;;1.33;;
26822;SDS011;14852;51.910;8.878;2023-08-06T11:23:37;1.75;;;1.50;;
26822;SDS011;14852;51.910;8.878;2023-08-06T11:26:04;3.90;;;1.70;;
26822;SDS011;14852;51.910;8.878;2023-08-06T11:28:30;3.42;;;1.40;;
26822;SDS011;14852;51.910;8.878;2023-08-06T11:30:55;2.75;;;1.50;;
26822;SDS011;14852;51.910;8.878;2023-08-06T11:33:25;1.70;;;1.60;;
26822;SDS011;14852;51.910;8.878;2023-08-06T11:35:55;2.53;;;1.60;;
26822;SDS011;14852;51.910;8.878;2023-08-06T11:38:26;1.70;;;1.42;;
26822;SDS011;14852;51.910;8.878;2023-08-06T11:40:53;6.20;;;1.90;;
26822;SDS011;14852;51.910;8.878;2023-08-06T11:43:20;1.95;;;1.63;;
26822;SDS011;14852;51.910;8.878;2023-08-06T11:45:47;1.63;;;1.52;;
26822;SDS011;14852;51.910;8.878;2023-08-06T11:48:15;1.85;;;1.63;;
26822;SDS011;14852;51.910;8.878;2023-08-06T11:50:43;2.15;;;1.80;;
26822;SDS011;14852;51.910;8.878;2023-08-06T11:53:11;1.67;;;1.58;;
26822;SDS011;14852;51.910;8.878;2023-08-06T11:55:39;3.15;;;2.25;;
26822;SDS011;14852;51.910;8.878;2023-08-06T11:58:05;1.60;;;1.45;;
26822;SDS011;14852;51.910;8.878;2023-08-06T12:00:31;2.97;;;1.77;;
26822;SDS011;14852;51.910;8.878;2023-08-06T12:02:57;1.63;;;1.50;;
26822;SDS011;14852;51.910;8.878;2023-08-06T12:05:24;1.67;;;1.58;;
26822;SDS011;14852;51.910;8.878;2023-08-06T12:07:58;2.60;;;1.60;;
26822;SDS011;14852;51.910;8.878;2023-08-06T12:10:27;1.88;;;1.60;;
26822;SDS011;14852;51.910;8.878;2023-08-06T12:12:54;1.60;;;1.27;;
26822;SDS011;14852;51.910;8.878;2023-08-06T12:15:20;2.05;;;1.42;;
26822;SDS011;14852;51.910;8.878;2023-08-06T12:17:47;2.13;;;1.50;;
26822;SDS011;14852;51.910;8.878;2023-08-06T12:20:13;2.22;;;1.58;;
26822;SDS011;14852;51.910;8.878;2023-08-06T12:22:39;2.15;;;1.77;;
26822;SDS011;14852;51.910;8.878;2023-08-06T12:25:08;2.65;;;1.80;;
26822;SDS011;14852;51.910;8.878;2023-08-06T12:27:37;1.80;;;1.70;;
26822;SDS011;14852;51.910;8.878;2023-08-06T12:30:06;1.88;;;1.60;;
26822;SDS011;14852;51.910;8.878;2023-08-06T12:32:33;1.73;;;1.60;;
26822;SDS011;14852;51.910;8.878;2023-08-06T12:34:59;2.90;;;2.25;;
26822;SDS011;14852;51.910;8.878;2023-08-06T12:37:26;1.85;;;1.60;;
26822;SDS011;14852;51.910;8.878;2023-08-06T12:39:52;2.08;;;1.70;;
26822;SDS011;14852;51.910;8.878;2023-08-06T12:42:18;2.20;;;1.83;;
26822;SDS011;14852;51.910;8.878;2023-08-06T12:44:44;2.00;;;1.55;;
26822;SDS011;14852;51.910;8.878;2023-08-06T12:47:09;2.30;;;2.10;;
26822;SDS011;14852;51.910;8.878;2023-08-06T12:49:35;3.90;;;2.05;;
26822;SDS011;14852;51.910;8.878;2023-08-06T12:52:01;2.03;;;1.83;;
26822;SDS011;14852;51.910;8.878;2023-08-06T12:54:29;3.72;;;1.98;;
26822;SDS011;14852;51.910;8.878;2023-08-06T12:57:01;2.20;;;2.00;;
26822;SDS011;14852;51.910;8.878;2023-08-06T12:59:27;1.98;;;1.60;;
26822;SDS011;14852;51.910;8.878;2023-08-06T13:01:53;1.92;;;1.60;;
26822;SDS011;14852;51.910;8.878;2023-08-06T13:04:19;3.05;;;2.15;;
26822;SDS011;14852;51.910;8.878;2023-08-06T13:06:45;2.08;;;1.60;;
26822;SDS011;14852;51.910;8.878;2023-08-06T13:09:11;3.03;;;1.95;;
26822;SDS011;14852;51.910;8.878;2023-08-06T13:11:38;3.75;;;1.65;;
26822;SDS011;14852;51.910;8.878;2023-08-06T13:14:06;2.22;;;2.03;;
26822;SDS011;14852;51.910;8.878;2023-08-06T13:16:36;3.30;;;1.98;;
26822;SDS011;14852;51.910;8.878;2023-08-06T13:19:05;2.08;;;1.73;;
26822;SDS011;14852;51.910;8.878;2023-08-06T13:22:14;2.10;;;1.90;;
26822;SDS011;14852;51.910;8.878;2023-08-06T13:24:30;3.33;;;2.10;;
26822;SDS011;14852;51.910;8.878;2023-08-06T13:26:56;3.15;;;1.90;;
26822;SDS011;14852;51.910;8.878;2023-08-06T13:29:22;2.10;;;1.90;;
26822;SDS011;14852;51.910;8.878;2023-08-06T13:31:48;2.10;;;1.90;;
26822;SDS011;14852;51.910;8.878;2023-08-06T13:34:13;1.95;;;1.75;;
26822;SDS011;14852;51.910;8.878;2023-08-06T13:36:41;1.77;;;1.67;;
26822;SDS011;14852;51.910;8.878;2023-08-06T13:39:07;2.17;;;1.85;;
26822;SDS011;14852;51.910;8.878;2023-08-06T13:41:33;2.08;;;1.83;;
26822;SDS011;14852;51.910;8.878;2023-08-06T13:43:59;2.22;;;2.00;;
26822;SDS011;14852;51.910;8.878;2023-08-06T13:46:24;2.88;;;1.83;;
26822;SDS011;14852;51.910;8.878;2023-08-06T13:48:50;2.45;;;1.70;;
26822;SDS011;14852;51.910;8.878;2023-08-06T13:51:16;3.13;;;2.28;;
26822;SDS011;14852;51.910;8.878;2023-08-06T13:53:42;2.10;;;1.90;;
26822;SDS011;14852;51.910;8.878;2023-08-06T13:56:09;3.17;;;1.83;;
26822;SDS011;14852;51.910;8.878;2023-08-06T13:58:36;2.83;;;2.38;;
26822;SDS011;14852;51.910;8.878;2023-08-06T14:01:03;2.72;;;2.10;;
26822;SDS011;14852;51.910;8.878;2023-08-06T14:03:29;2.03;;;1.58;;
26822;SDS011;14852;51.910;8.878;2023-08-06T14:05:55;2.03;;;1.70;;
26822;SDS011;14852;51.910;8.878;2023-08-06T14:08:22;1.67;;;1.42;;
26822;SDS011;14852;51.910;8.878;2023-08-06T14:10:51;2.65;;;1.73;;
26822;SDS011;14852;51.910;8.878;2023-08-06T14:13:17;1.95;;;1.70;;
26822;SDS011;14852;51.910;8.878;2023-08-06T14:15:43;2.22;;;1.85;;
26822;SDS011;14852;51.910;8.878;2023-08-06T14:18:11;4.53;;;1.88;;
26822;SDS011;14852;51.910;8.878;2023-08-06T14:20:41;1.67;;;1.58;;
26822;SDS011;14852;51.910;8.878;2023-08-06T14:23:07;3.03;;;2.00;;
26822;SDS011;14852;51.910;8.878;2023-08-06T14:25:34;1.63;;;1.38;;
26822;SDS011;14852;51.910;8.878;2023-08-06T14:28:00;3.13;;;2.00;;
26822;SDS011;14852;51.910;8.878;2023-08-06T14:30:26;3.20;;;1.80;;
26822;SDS011;14852;51.910;8.878;2023-08-06T14:32:52;2.50;;;1.40;;
26822;SDS011;14852;51.910;8.878;2023-08-06T14:35:17;1.83;;;1.35;;
26822;SDS011;14852;51.910;8.878;2023-08-06T14:37:43;1.98;;;1.50;;
26822;SDS011;14852;51.910;8.878;2023-08-06T14:40:10;1.65;;;1.52;;
26822;SDS011;14852;51.910;8.878;2023-08-06T14:42:36;2.97;;;1.90;;
26822;SDS011;14852;51.910;8.878;2023-08-06T14:45:02;2.65;;;1.80;;
26822;SDS011;14852;51.910;8.878;2023-08-06T14:47:29;1.80;;;1.60;;
26822;SDS011;14852;51.910;8.878;2023-08-06T14:49:54;1.40;;;1.30;;
26822;SDS011;14852;51.910;8.878;2023-08-06T14:52:20;1.90;;;1.50;;
26822;SDS011;14852;51.910;8.878;2023-08-06T14:54:46;1.73;;;1.30;;